sensor_id;sensor_type;location;lat;lon;timestamp;P1;durP1;ratioP1;P2;durP2;ratioP2
43998;SDS011;51319;52.162;5.302;2023-04-24T00:00:22;1.80;;;0.80;;
43998;SDS011;51319;52.162;5.302;2023-04-24T00:02:49;1.35;;;0.55;;
43998;SDS011;51319;52.162;5.302;2023-04-24T00:05:17;0.95;;;0.60;;
43998;SDS011;51319;52.162;5.302;2023-04-24T00:07:44;2.90;;;0.60;;
43998;SDS011;51319;52.162;5.302;2023-04-24T00:10:11;0.93;;;0.80;;
43998;SDS011;51319;52.162;5.302;2023-04-24T00:12:39;2.70;;;0.95;;
43998;SDS011;51319;52.162;5.302;2023-04-24T00:15:06;1.20;;;1.10;;
43998;SDS011;51319;52.162;5.302;2023-04-24T00:17:33;2.47;;;1.30;;
43998;SDS011;51319;52.162;5.302;2023-04-24T00:20:00;2.03;;;1.38;;
43998;SDS011;51319;52.162;5.302;2023-04-24T00:22:31;1.65;;;1.38;;
43998;SDS011;51319;52.162;5.302;2023-04-24T00:24:59;2.55;;;1.20;;
43998;SDS011;51319;52.162;5.302;2023-04-24T00:27:26;1.30;;;0.52;;
43998;SDS011;51319;52.162;5.302;2023-04-24T00:29:53;2.78;;;0.63;;
43998;SDS011;51319;52.162;5.302;2023-04-24T00:32:23;2.53;;;0.77;;
43998;SDS011;51319;52.162;5.302;2023-04-24T00:34:51;1.60;;;0.85;;
43998;SDS011;51319;52.162;5.302;2023-04-24T00:37:18;2.50;;;0.60;;
43998;SDS011;51319;52.162;5.302;2023-04-24T00:39:47;0.75;;;0.57;;
43998;SDS011;51319;52.162;5.302;2023-04-24T00:42:15;1.70;;;0.50;;
43998;SDS011;51319;52.162;5.302;2023-04-24T00:44:43;0.65;;;0.63;;
43998;SDS011;51319;52.162;5.302;2023-04-24T00:47:13;0.98;;;0.60;;
43998;SDS011;51319;52.162;5.302;2023-04-24T00:49:40;2.30;;;0.73;;
43998;SDS011;51319;52.162;5.302;2023-04-24T00:52:08;1.15;;;0.90;;
43998;SDS011;51319;52.162;5.302;2023-04-24T00:54:37;3.50;;;0.70;;
43998;SDS011;51319;52.162;5.302;2023-04-24T00:57:04;0.80;;;0.80;;
43998;SDS011;51319;52.162;5.302;2023-04-24T00:59:32;2.22;;;0.73;;
43998;SDS011;51319;52.162;5.302;2023-04-24T01:01:59;1.02;;;0.88;;
43998;SDS011;51319;52.162;5.302;2023-04-24T01:04:27;1.50;;;0.90;;
43998;SDS011;51319;52.162;5.302;2023-04-24T01:06:54;1.35;;;0.68;;
43998;SDS011;51319;52.162;5.302;2023-04-24T01:09:23;1.15;;;1.02;;
43998;SDS011;51319;52.162;5.302;2023-04-24T01:11:50;3.05;;;1.30;;
43998;SDS011;51319;52.162;5.302;2023-04-24T01:14:17;0.98;;;0.80;;
43998;SDS011;51319;52.162;5.302;2023-04-24T01:16:44;0.70;;;0.70;;
43998;SDS011;51319;52.162;5.302;2023-04-24T01:19:11;3.03;;;0.93;;
43998;SDS011;51319;52.162;5.302;2023-04-24T01:21:41;2.15;;;1.88;;
43998;SDS011;51319;52.162;5.302;2023-04-24T01:24:09;3.08;;;1.15;;
43998;SDS011;51319;52.162;5.302;2023-04-24T01:26:36;1.95;;;1.75;;
43998;SDS011;51319;52.162;5.302;2023-04-24T01:31:49;2.35;;;1.85;;
43998;SDS011;51319;52.162;5.302;2023-04-24T01:34:16;3.85;;;2.50;;
43998;SDS011;51319;52.162;5.302;2023-04-24T01:36:45;6.20;;;2.70;;
43998;SDS011;51319;52.162;5.302;2023-04-24T01:39:13;5.07;;;2.55;;
43998;SDS011;51319;52.162;5.302;2023-04-24T01:41:41;3.22;;;2.88;;
43998;SDS011;51319;52.162;5.302;2023-04-24T01:44:09;3.95;;;3.58;;
43998;SDS011;51319;52.162;5.302;2023-04-24T01:46:36;6.65;;;3.97;;
43998;SDS011;51319;52.162;5.302;2023-04-24T01:49:04;4.82;;;3.63;;
43998;SDS011;51319;52.162;5.302;2023-04-24T01:51:31;4.50;;;4.00;;
43998;SDS011;51319;52.162;5.302;2023-04-24T01:53:58;4.93;;;3.83;;
43998;SDS011;51319;52.162;5.302;2023-04-24T01:56:25;4.68;;;4.18;;
43998;SDS011;51319;52.162;5.302;2023-04-24T01:58:56;6.37;;;4.57;;
43998;SDS011;51319;52.162;5.302;2023-04-24T02:01:44;5.88;;;4.72;;
43998;SDS011;51319;52.162;5.302;2023-04-24T02:04:11;6.72;;;4.50;;
43998;SDS011;51319;52.162;5.302;2023-04-24T02:06:38;6.00;;;4.60;;
43998;SDS011;51319;52.162;5.302;2023-04-24T02:09:05;6.03;;;5.00;;
43998;SDS011;51319;52.162;5.302;2023-04-24T02:11:32;5.15;;;4.55;;
43998;SDS011;51319;52.162;5.302;2023-04-24T02:13:59;6.45;;;5.45;;
43998;SDS011;51319;52.162;5.302;2023-04-24T02:16:27;8.52;;;5.65;;
43998;SDS011;51319;52.162;5.302;2023-04-24T02:18:58;10.75;;;5.20;;
43998;SDS011;51319;52.162;5.302;2023-04-24T02:21:31;6.53;;;5.00;;
43998;SDS011;51319;52.162;5.302;2023-04-24T02:23:58;8.23;;;5.95;;
43998;SDS011;51319;52.162;5.302;2023-04-24T02:26:25;6.93;;;5.40;;
43998;SDS011;51319;52.162;5.302;2023-04-24T02:28:52;7.72;;;5.82;;
43998;SDS011;51319;52.162;5.302;2023-04-24T02:31:19;8.82;;;5.78;;
43998;SDS011;51319;52.162;5.302;2023-04-24T02:33:46;5.70;;;4.97;;
43998;SDS011;51319;52.162;5.302;2023-04-24T02:36:13;8.93;;;4.80;;
43998;SDS011;51319;52.162;5.302;2023-04-24T02:38:40;4.32;;;3.78;;
43998;SDS011;51319;52.162;5.302;2023-04-24T02:41:07;4.03;;;3.13;;
43998;SDS011;51319;52.162;5.302;2023-04-24T02:43:34;5.95;;;2.97;;
43998;SDS011;51319;52.162;5.302;2023-04-24T02:46:01;3.20;;;2.90;;
43998;SDS011;51319;52.162;5.302;2023-04-24T02:48:29;2.90;;;2.28;;
43998;SDS011;51319;52.162;5.302;2023-04-24T02:50:56;2.33;;;2.13;;
43998;SDS011;51319;52.162;5.302;2023-04-24T02:53:23;4.88;;;2.30;;
43998;SDS011;51319;52.162;5.302;2023-04-24T02:55:51;2.92;;;1.90;;
43998;SDS011;51319;52.162;5.302;2023-04-24T02:58:18;1.83;;;1.30;;
43998;SDS011;51319;52.162;5.302;2023-04-24T03:03:22;7.28;;;1.20;;
43998;SDS011;51319;52.162;5.302;2023-04-24T03:05:59;2.47;;;1.13;;
43998;SDS011;51319;52.162;5.302;2023-04-24T03:08:26;2.70;;;1.60;;
43998;SDS011;51319;52.162;5.302;2023-04-24T03:10:53;1.70;;;1.13;;
43998;SDS011;51319;52.162;5.302;2023-04-24T03:13:19;1.40;;;1.30;;
43998;SDS011;51319;52.162;5.302;2023-04-24T03:15:47;1.98;;;1.15;;
43998;SDS011;51319;52.162;5.302;2023-04-24T03:18:14;3.35;;;1.02;;
43998;SDS011;51319;52.162;5.302;2023-04-24T03:20:41;2.63;;;1.20;;
43998;SDS011;51319;52.162;5.302;2023-04-24T03:23:11;1.42;;;1.10;;
43998;SDS011;51319;52.162;5.302;2023-04-24T03:25:38;1.52;;;1.00;;
43998;SDS011;51319;52.162;5.302;2023-04-24T03:28:09;2.45;;;1.00;;
43998;SDS011;51319;52.162;5.302;2023-04-24T03:30:36;1.88;;;1.17;;
43998;SDS011;51319;52.162;5.302;2023-04-24T03:33:03;2.03;;;1.20;;
43998;SDS011;51319;52.162;5.302;2023-04-24T03:35:30;1.38;;;1.10;;
43998;SDS011;51319;52.162;5.302;2023-04-24T03:37:56;1.88;;;1.50;;
43998;SDS011;51319;52.162;5.302;2023-04-24T03:40:23;3.55;;;1.30;;
43998;SDS011;51319;52.162;5.302;2023-04-24T03:42:50;1.92;;;1.60;;
43998;SDS011;51319;52.162;5.302;2023-04-24T03:45:20;1.90;;;1.20;;
43998;SDS011;51319;52.162;5.302;2023-04-24T03:47:47;1.40;;;1.17;;
43998;SDS011;51319;52.162;5.302;2023-04-24T03:50:14;2.95;;;1.42;;
43998;SDS011;51319;52.162;5.302;2023-04-24T03:52:43;1.35;;;1.20;;
43998;SDS011;51319;52.162;5.302;2023-04-24T03:55:10;1.65;;;1.40;;
43998;SDS011;51319;52.162;5.302;2023-04-24T03:57:40;3.15;;;1.30;;
43998;SDS011;51319;52.162;5.302;2023-04-24T04:00:07;1.45;;;1.20;;
43998;SDS011;51319;52.162;5.302;2023-04-24T04:02:35;3.30;;;1.17;;
43998;SDS011;51319;52.162;5.302;2023-04-24T04:05:02;1.95;;;1.00;;
43998;SDS011;51319;52.162;5.302;2023-04-24T04:07:29;2.75;;;1.08;;
43998;SDS011;51319;52.162;5.302;2023-04-24T04:09:56;2.60;;;1.20;;
43998;SDS011;51319;52.162;5.302;2023-04-24T04:12:23;1.80;;;1.30;;
43998;SDS011;51319;52.162;5.302;2023-04-24T04:14:50;1.65;;;1.23;;
43998;SDS011;51319;52.162;5.302;2023-04-24T04:17:17;1.52;;;1.42;;
43998;SDS011;51319;52.162;5.302;2023-04-24T04:19:44;1.55;;;1.45;;
43998;SDS011;51319;52.162;5.302;2023-04-24T04:22:11;2.05;;;1.65;;
43998;SDS011;51319;52.162;5.302;2023-04-24T04:24:38;2.92;;;1.90;;
43998;SDS011;51319;52.162;5.302;2023-04-24T04:27:07;2.97;;;2.08;;
43998;SDS011;51319;52.162;5.302;2023-04-24T04:29:34;4.90;;;1.98;;
43998;SDS011;51319;52.162;5.302;2023-04-24T04:32:02;2.78;;;1.80;;
43998;SDS011;51319;52.162;5.302;2023-04-24T04:34:36;4.55;;;2.20;;
43998;SDS011;51319;52.162;5.302;2023-04-24T04:37:04;2.33;;;2.13;;
43998;SDS011;51319;52.162;5.302;2023-04-24T04:39:33;2.38;;;1.83;;
43998;SDS011;51319;52.162;5.302;2023-04-24T04:42:02;6.43;;;2.17;;
43998;SDS011;51319;52.162;5.302;2023-04-24T04:44:28;4.88;;;2.10;;
43998;SDS011;51319;52.162;5.302;2023-04-24T04:46:56;7.82;;;2.15;;
43998;SDS011;51319;52.162;5.302;2023-04-24T04:49:25;3.45;;;2.45;;
43998;SDS011;51319;52.162;5.302;2023-04-24T04:51:54;5.07;;;2.42;;
43998;SDS011;51319;52.162;5.302;2023-04-24T04:54:21;2.22;;;1.95;;
43998;SDS011;51319;52.162;5.302;2023-04-24T04:56:51;8.05;;;3.17;;
43998;SDS011;51319;52.162;5.302;2023-04-24T04:59:18;6.00;;;2.95;;
43998;SDS011;51319;52.162;5.302;2023-04-24T05:01:45;4.18;;;2.97;;
43998;SDS011;51319;52.162;5.302;2023-04-24T05:04:13;3.92;;;3.17;;
43998;SDS011;51319;52.162;5.302;2023-04-24T05:06:40;4.53;;;2.92;;
43998;SDS011;51319;52.162;5.302;2023-04-24T05:09:07;7.32;;;3.40;;
43998;SDS011;51319;52.162;5.302;2023-04-24T05:11:34;6.30;;;3.03;;
43998;SDS011;51319;52.162;5.302;2023-04-24T05:14:01;6.15;;;3.42;;
43998;SDS011;51319;52.162;5.302;2023-04-24T05:16:27;8.10;;;4.32;;
43998;SDS011;51319;52.162;5.302;2023-04-24T05:18:58;14.80;;;8.38;;
43998;SDS011;51319;52.162;5.302;2023-04-24T05:21:25;5.57;;;4.30;;
43998;SDS011;51319;52.162;5.302;2023-04-24T05:23:53;6.07;;;3.92;;
43998;SDS011;51319;52.162;5.302;2023-04-24T05:26:19;6.80;;;4.55;;
43998;SDS011;51319;52.162;5.302;2023-04-24T05:28:48;9.63;;;5.10;;
43998;SDS011;51319;52.162;5.302;2023-04-24T05:31:14;10.60;;;5.38;;
43998;SDS011;51319;52.162;5.302;2023-04-24T05:33:45;8.80;;;5.57;;
43998;SDS011;51319;52.162;5.302;2023-04-24T05:36:12;10.93;;;4.85;;
43998;SDS011;51319;52.162;5.302;2023-04-24T05:38:49;7.82;;;4.88;;
43998;SDS011;51319;52.162;5.302;2023-04-24T05:41:17;6.72;;;4.32;;
43998;SDS011;51319;52.162;5.302;2023-04-24T05:43:43;6.05;;;3.55;;
43998;SDS011;51319;52.162;5.302;2023-04-24T05:46:11;4.32;;;2.50;;
43998;SDS011;51319;52.162;5.302;2023-04-24T05:48:38;8.65;;;3.08;;
43998;SDS011;51319;52.162;5.302;2023-04-24T05:51:05;13.80;;;5.85;;
43998;SDS011;51319;52.162;5.302;2023-04-24T05:53:35;6.90;;;2.92;;
43998;SDS011;51319;52.162;5.302;2023-04-24T05:56:02;2.40;;;1.65;;
43998;SDS011;51319;52.162;5.302;2023-04-24T05:58:29;9.27;;;2.08;;
43998;SDS011;51319;52.162;5.302;2023-04-24T06:00:56;1.73;;;1.00;;
43998;SDS011;51319;52.162;5.302;2023-04-24T06:03:24;7.65;;;0.93;;
43998;SDS011;51319;52.162;5.302;2023-04-24T06:05:52;4.53;;;1.02;;
43998;SDS011;51319;52.162;5.302;2023-04-24T06:08:18;2.28;;;0.85;;
43998;SDS011;51319;52.162;5.302;2023-04-24T06:10:45;1.38;;;0.70;;
43998;SDS011;51319;52.162;5.302;2023-04-24T06:13:16;1.92;;;0.95;;
43998;SDS011;51319;52.162;5.302;2023-04-24T06:15:43;4.32;;;0.98;;
43998;SDS011;51319;52.162;5.302;2023-04-24T06:18:10;2.58;;;1.20;;
43998;SDS011;51319;52.162;5.302;2023-04-24T06:20:38;2.42;;;1.10;;
43998;SDS011;51319;52.162;5.302;2023-04-24T06:23:06;3.03;;;1.35;;
43998;SDS011;51319;52.162;5.302;2023-04-24T06:25:33;2.83;;;1.50;;
43998;SDS011;51319;52.162;5.302;2023-04-24T06:28:00;5.05;;;1.73;;
43998;SDS011;51319;52.162;5.302;2023-04-24T06:30:31;10.10;;;3.00;;
43998;SDS011;51319;52.162;5.302;2023-04-24T06:32:58;9.80;;;5.20;;
43998;SDS011;51319;52.162;5.302;2023-04-24T06:38:33;22.13;;;10.02;;
43998;SDS011;51319;52.162;5.302;2023-04-24T06:41:00;22.10;;;12.15;;
43998;SDS011;51319;52.162;5.302;2023-04-24T06:43:27;18.63;;;10.75;;
43998;SDS011;51319;52.162;5.302;2023-04-24T06:45:54;20.27;;;11.27;;
43998;SDS011;51319;52.162;5.302;2023-04-24T06:48:22;19.48;;;11.65;;
43998;SDS011;51319;52.162;5.302;2023-04-24T06:50:49;20.23;;;12.00;;
43998;SDS011;51319;52.162;5.302;2023-04-24T06:53:17;26.98;;;13.13;;
43998;SDS011;51319;52.162;5.302;2023-04-24T06:55:44;25.25;;;13.68;;
43998;SDS011;51319;52.162;5.302;2023-04-24T06:58:12;25.95;;;12.95;;
43998;SDS011;51319;52.162;5.302;2023-04-24T07:00:40;28.40;;;14.68;;
43998;SDS011;51319;52.162;5.302;2023-04-24T07:03:07;25.40;;;13.27;;
43998;SDS011;51319;52.162;5.302;2023-04-24T07:05:34;25.05;;;13.02;;
43998;SDS011;51319;52.162;5.302;2023-04-24T07:08:01;25.95;;;12.98;;
43998;SDS011;51319;52.162;5.302;2023-04-24T07:10:29;20.85;;;11.13;;
43998;SDS011;51319;52.162;5.302;2023-04-24T07:12:56;23.38;;;11.15;;
43998;SDS011;51319;52.162;5.302;2023-04-24T07:15:23;19.50;;;10.38;;
43998;SDS011;51319;52.162;5.302;2023-04-24T07:17:50;24.52;;;10.10;;
43998;SDS011;51319;52.162;5.302;2023-04-24T07:20:17;24.73;;;10.57;;
43998;SDS011;51319;52.162;5.302;2023-04-24T07:22:44;19.35;;;9.93;;
43998;SDS011;51319;52.162;5.302;2023-04-24T07:25:11;25.05;;;10.32;;
43998;SDS011;51319;52.162;5.302;2023-04-24T07:27:40;22.25;;;9.32;;
43998;SDS011;51319;52.162;5.302;2023-04-24T07:30:07;20.45;;;9.70;;
43998;SDS011;51319;52.162;5.302;2023-04-24T07:32:35;20.58;;;10.13;;
43998;SDS011;51319;52.162;5.302;2023-04-24T07:35:02;24.75;;;10.50;;
43998;SDS011;51319;52.162;5.302;2023-04-24T07:37:29;19.50;;;9.52;;
43998;SDS011;51319;52.162;5.302;2023-04-24T07:39:56;25.50;;;10.15;;
43998;SDS011;51319;52.162;5.302;2023-04-24T07:42:23;24.88;;;10.90;;
43998;SDS011;51319;52.162;5.302;2023-04-24T07:44:50;20.77;;;9.05;;
43998;SDS011;51319;52.162;5.302;2023-04-24T07:47:17;24.00;;;10.32;;
43998;SDS011;51319;52.162;5.302;2023-04-24T07:49:44;28.50;;;10.25;;
43998;SDS011;51319;52.162;5.302;2023-04-24T07:52:17;24.75;;;10.43;;
43998;SDS011;51319;52.162;5.302;2023-04-24T07:54:44;21.85;;;9.73;;
43998;SDS011;51319;52.162;5.302;2023-04-24T07:57:11;21.17;;;9.38;;
43998;SDS011;51319;52.162;5.302;2023-04-24T07:59:38;27.15;;;9.90;;
43998;SDS011;51319;52.162;5.302;2023-04-24T08:02:08;25.52;;;9.48;;
43998;SDS011;51319;52.162;5.302;2023-04-24T08:04:36;21.52;;;8.43;;
43998;SDS011;51319;52.162;5.302;2023-04-24T08:07:03;19.65;;;6.88;;
43998;SDS011;51319;52.162;5.302;2023-04-24T08:09:30;22.42;;;8.10;;
43998;SDS011;51319;52.162;5.302;2023-04-24T08:11:57;24.20;;;9.55;;
43998;SDS011;51319;52.162;5.302;2023-04-24T08:14:24;26.33;;;8.27;;
43998;SDS011;51319;52.162;5.302;2023-04-24T08:16:53;20.65;;;5.90;;
43998;SDS011;51319;52.162;5.302;2023-04-24T08:19:22;17.67;;;5.18;;
43998;SDS011;51319;52.162;5.302;2023-04-24T08:21:49;22.30;;;4.97;;
43998;SDS011;51319;52.162;5.302;2023-04-24T08:24:16;22.52;;;5.63;;
43998;SDS011;51319;52.162;5.302;2023-04-24T08:26:43;18.85;;;5.18;;
43998;SDS011;51319;52.162;5.302;2023-04-24T08:29:10;20.75;;;4.90;;
43998;SDS011;51319;52.162;5.302;2023-04-24T08:31:38;27.10;;;5.45;;
43998;SDS011;51319;52.162;5.302;2023-04-24T08:34:05;19.15;;;4.57;;
43998;SDS011;51319;52.162;5.302;2023-04-24T08:36:32;25.08;;;5.05;;
43998;SDS011;51319;52.162;5.302;2023-04-24T08:39:12;25.38;;;4.53;;
43998;SDS011;51319;52.162;5.302;2023-04-24T08:41:39;22.00;;;4.85;;
43998;SDS011;51319;52.162;5.302;2023-04-24T08:44:09;18.08;;;4.35;;
43998;SDS011;51319;52.162;5.302;2023-04-24T08:46:37;23.33;;;4.38;;
43998;SDS011;51319;52.162;5.302;2023-04-24T08:49:04;18.60;;;3.97;;
43998;SDS011;51319;52.162;5.302;2023-04-24T08:51:31;20.60;;;3.55;;
43998;SDS011;51319;52.162;5.302;2023-04-24T08:53:58;23.23;;;3.75;;
43998;SDS011;51319;52.162;5.302;2023-04-24T08:56:25;18.10;;;4.35;;
43998;SDS011;51319;52.162;5.302;2023-04-24T08:58:58;24.77;;;3.80;;
43998;SDS011;51319;52.162;5.302;2023-04-24T09:01:25;14.95;;;3.28;;
43998;SDS011;51319;52.162;5.302;2023-04-24T09:03:55;17.48;;;4.40;;
43998;SDS011;51319;52.162;5.302;2023-04-24T09:06:22;17.90;;;2.90;;
43998;SDS011;51319;52.162;5.302;2023-04-24T09:08:51;12.77;;;3.50;;
43998;SDS011;51319;52.162;5.302;2023-04-24T09:11:20;23.17;;;3.72;;
43998;SDS011;51319;52.162;5.302;2023-04-24T09:13:49;15.32;;;3.85;;
43998;SDS011;51319;52.162;5.302;2023-04-24T09:16:17;22.08;;;3.53;;
43998;SDS011;51319;52.162;5.302;2023-04-24T09:18:45;16.92;;;3.85;;
43998;SDS011;51319;52.162;5.302;2023-04-24T09:21:13;15.32;;;3.30;;
43998;SDS011;51319;52.162;5.302;2023-04-24T09:23:41;17.73;;;3.63;;
43998;SDS011;51319;52.162;5.302;2023-04-24T09:26:08;14.18;;;3.00;;
43998;SDS011;51319;52.162;5.302;2023-04-24T09:28:38;15.07;;;3.10;;
43998;SDS011;51319;52.162;5.302;2023-04-24T09:31:15;16.48;;;3.50;;
43998;SDS011;51319;52.162;5.302;2023-04-24T09:33:59;17.10;;;3.10;;
43998;SDS011;51319;52.162;5.302;2023-04-24T09:36:41;17.92;;;3.08;;
43998;SDS011;51319;52.162;5.302;2023-04-24T09:39:12;13.23;;;2.97;;
43998;SDS011;51319;52.162;5.302;2023-04-24T09:41:49;11.80;;;3.10;;
43998;SDS011;51319;52.162;5.302;2023-04-24T09:44:27;13.05;;;2.88;;
43998;SDS011;51319;52.162;5.302;2023-04-24T09:46:55;15.98;;;3.47;;
43998;SDS011;51319;52.162;5.302;2023-04-24T09:49:24;24.40;;;3.53;;
43998;SDS011;51319;52.162;5.302;2023-04-24T09:52:06;16.85;;;2.45;;
43998;SDS011;51319;52.162;5.302;2023-04-24T09:54:38;17.08;;;3.13;;
43998;SDS011;51319;52.162;5.302;2023-04-24T09:57:08;16.05;;;3.53;;
43998;SDS011;51319;52.162;5.302;2023-04-24T09:59:46;12.73;;;2.35;;
43998;SDS011;51319;52.162;5.302;2023-04-24T10:02:19;11.02;;;2.65;;
43998;SDS011;51319;52.162;5.302;2023-04-24T10:04:54;11.43;;;2.55;;
43998;SDS011;51319;52.162;5.302;2023-04-24T10:07:25;12.18;;;3.20;;
43998;SDS011;51319;52.162;5.302;2023-04-24T10:09:52;12.90;;;3.00;;
43998;SDS011;51319;52.162;5.302;2023-04-24T10:12:20;12.55;;;2.35;;
43998;SDS011;51319;52.162;5.302;2023-04-24T10:14:49;9.02;;;2.00;;
43998;SDS011;51319;52.162;5.302;2023-04-24T10:17:16;7.03;;;1.60;;
43998;SDS011;51319;52.162;5.302;2023-04-24T10:19:44;6.00;;;1.50;;
43998;SDS011;51319;52.162;5.302;2023-04-24T10:22:13;7.63;;;1.50;;
43998;SDS011;51319;52.162;5.302;2023-04-24T10:24:43;9.07;;;1.85;;
43998;SDS011;51319;52.162;5.302;2023-04-24T10:27:11;9.43;;;1.45;;
43998;SDS011;51319;52.162;5.302;2023-04-24T10:29:41;7.90;;;1.40;;
43998;SDS011;51319;52.162;5.302;2023-04-24T10:32:11;5.68;;;0.90;;
43998;SDS011;51319;52.162;5.302;2023-04-24T10:34:38;6.05;;;1.15;;
43998;SDS011;51319;52.162;5.302;2023-04-24T10:37:05;4.70;;;1.20;;
43998;SDS011;51319;52.162;5.302;2023-04-24T10:39:33;5.68;;;1.20;;
43998;SDS011;51319;52.162;5.302;2023-04-24T10:42:01;8.40;;;1.35;;
43998;SDS011;51319;52.162;5.302;2023-04-24T10:44:35;8.05;;;1.30;;
43998;SDS011;51319;52.162;5.302;2023-04-24T10:47:03;3.15;;;0.88;;
43998;SDS011;51319;52.162;5.302;2023-04-24T10:49:31;4.93;;;1.00;;
43998;SDS011;51319;52.162;5.302;2023-04-24T10:52:02;5.43;;;1.10;;
43998;SDS011;51319;52.162;5.302;2023-04-24T10:54:42;7.97;;;1.40;;
43998;SDS011;51319;52.162;5.302;2023-04-24T10:57:25;5.05;;;1.23;;
43998;SDS011;51319;52.162;5.302;2023-04-24T11:02:42;12.13;;;1.98;;
43998;SDS011;51319;52.162;5.302;2023-04-24T11:05:19;12.32;;;1.67;;
43998;SDS011;51319;52.162;5.302;2023-04-24T11:10:55;7.28;;;1.40;;
43998;SDS011;51319;52.162;5.302;2023-04-24T11:13:25;8.33;;;1.47;;
43998;SDS011;51319;52.162;5.302;2023-04-24T11:16:12;9.20;;;1.60;;
43998;SDS011;51319;52.162;5.302;2023-04-24T11:18:41;9.15;;;1.40;;
43998;SDS011;51319;52.162;5.302;2023-04-24T11:21:12;6.60;;;1.58;;
43998;SDS011;51319;52.162;5.302;2023-04-24T11:23:39;6.40;;;1.20;;
43998;SDS011;51319;52.162;5.302;2023-04-24T11:26:10;4.47;;;1.50;;
43998;SDS011;51319;52.162;5.302;2023-04-24T11:28:48;7.35;;;1.65;;
43998;SDS011;51319;52.162;5.302;2023-04-24T11:34:06;2.38;;;0.52;;
43998;SDS011;51319;52.162;5.302;2023-04-24T11:36:40;4.90;;;0.63;;
43998;SDS011;51319;52.162;5.302;2023-04-24T11:39:09;1.40;;;0.82;;
43998;SDS011;51319;52.162;5.302;2023-04-24T11:41:37;2.58;;;0.60;;
43998;SDS011;51319;52.162;5.302;2023-04-24T11:44:07;2.00;;;0.57;;
43998;SDS011;51319;52.162;5.302;2023-04-24T11:46:38;5.53;;;1.10;;
43998;SDS011;51319;52.162;5.302;2023-04-24T11:49:06;4.35;;;0.45;;
43998;SDS011;51319;52.162;5.302;2023-04-24T11:51:35;4.20;;;1.15;;
43998;SDS011;51319;52.162;5.302;2023-04-24T11:54:18;2.67;;;0.80;;
43998;SDS011;51319;52.162;5.302;2023-04-24T11:56:49;4.38;;;0.60;;
43998;SDS011;51319;52.162;5.302;2023-04-24T11:59:19;3.67;;;0.80;;
43998;SDS011;51319;52.162;5.302;2023-04-24T12:01:49;5.60;;;0.60;;
43998;SDS011;51319;52.162;5.302;2023-04-24T12:04:17;5.38;;;1.17;;
43998;SDS011;51319;52.162;5.302;2023-04-24T12:07:01;2.95;;;0.70;;
43998;SDS011;51319;52.162;5.302;2023-04-24T12:09:39;9.75;;;0.88;;
43998;SDS011;51319;52.162;5.302;2023-04-24T12:12:08;9.63;;;0.93;;
43998;SDS011;51319;52.162;5.302;2023-04-24T12:14:42;4.22;;;1.50;;
43998;SDS011;51319;52.162;5.302;2023-04-24T12:17:15;4.78;;;1.10;;
43998;SDS011;51319;52.162;5.302;2023-04-24T12:19:47;7.35;;;1.58;;
43998;SDS011;51319;52.162;5.302;2023-04-24T12:22:14;4.88;;;0.80;;
43998;SDS011;51319;52.162;5.302;2023-04-24T12:27:41;14.85;;;1.20;;
43998;SDS011;51319;52.162;5.302;2023-04-24T12:30:10;9.15;;;1.52;;
43998;SDS011;51319;52.162;5.302;2023-04-24T12:32:42;9.73;;;1.42;;
43998;SDS011;51319;52.162;5.302;2023-04-24T12:35:09;8.88;;;1.27;;
43998;SDS011;51319;52.162;5.302;2023-04-24T12:37:36;10.75;;;1.63;;
43998;SDS011;51319;52.162;5.302;2023-04-24T12:40:06;8.65;;;2.05;;
43998;SDS011;51319;52.162;5.302;2023-04-24T12:42:36;8.00;;;1.75;;
43998;SDS011;51319;52.162;5.302;2023-04-24T12:45:09;15.23;;;2.45;;
43998;SDS011;51319;52.162;5.302;2023-04-24T12:47:38;5.72;;;1.70;;
43998;SDS011;51319;52.162;5.302;2023-04-24T12:50:10;9.60;;;1.83;;
43998;SDS011;51319;52.162;5.302;2023-04-24T12:52:39;9.95;;;1.80;;
43998;SDS011;51319;52.162;5.302;2023-04-24T12:55:07;15.48;;;2.63;;
43998;SDS011;51319;52.162;5.302;2023-04-24T12:57:36;14.98;;;2.53;;
43998;SDS011;51319;52.162;5.302;2023-04-24T13:00:04;16.38;;;3.00;;
43998;SDS011;51319;52.162;5.302;2023-04-24T13:02:33;13.38;;;2.78;;
43998;SDS011;51319;52.162;5.302;2023-04-24T13:05:03;15.43;;;2.63;;
43998;SDS011;51319;52.162;5.302;2023-04-24T13:07:30;10.90;;;2.50;;
43998;SDS011;51319;52.162;5.302;2023-04-24T13:09:58;14.45;;;2.03;;
43998;SDS011;51319;52.162;5.302;2023-04-24T13:12:25;13.40;;;2.60;;
43998;SDS011;51319;52.162;5.302;2023-04-24T13:14:53;21.55;;;3.00;;
43998;SDS011;51319;52.162;5.302;2023-04-24T13:17:20;14.13;;;3.30;;
43998;SDS011;51319;52.162;5.302;2023-04-24T13:19:49;12.77;;;2.72;;
43998;SDS011;51319;52.162;5.302;2023-04-24T13:22:17;23.35;;;3.67;;
43998;SDS011;51319;52.162;5.302;2023-04-24T13:24:45;11.65;;;3.20;;
43998;SDS011;51319;52.162;5.302;2023-04-24T13:27:11;12.23;;;2.90;;
43998;SDS011;51319;52.162;5.302;2023-04-24T13:29:38;13.18;;;2.75;;
43998;SDS011;51319;52.162;5.302;2023-04-24T13:32:05;9.27;;;2.45;;
43998;SDS011;51319;52.162;5.302;2023-04-24T13:34:33;10.95;;;2.60;;
43998;SDS011;51319;52.162;5.302;2023-04-24T13:37:01;14.35;;;2.40;;
43998;SDS011;51319;52.162;5.302;2023-04-24T13:39:30;11.52;;;2.47;;
43998;SDS011;51319;52.162;5.302;2023-04-24T13:41:57;9.35;;;2.63;;
43998;SDS011;51319;52.162;5.302;2023-04-24T13:44:24;14.48;;;3.40;;
43998;SDS011;51319;52.162;5.302;2023-04-24T13:46:52;12.23;;;2.85;;
43998;SDS011;51319;52.162;5.302;2023-04-24T13:49:20;18.05;;;3.75;;
43998;SDS011;51319;52.162;5.302;2023-04-24T13:51:48;14.48;;;3.55;;
43998;SDS011;51319;52.162;5.302;2023-04-24T13:54:17;14.23;;;3.30;;
43998;SDS011;51319;52.162;5.302;2023-04-24T13:56:46;13.30;;;2.63;;
43998;SDS011;51319;52.162;5.302;2023-04-24T13:59:13;13.20;;;3.05;;
43998;SDS011;51319;52.162;5.302;2023-04-24T14:01:40;14.35;;;3.63;;
43998;SDS011;51319;52.162;5.302;2023-04-24T14:04:07;9.98;;;2.80;;
43998;SDS011;51319;52.162;5.302;2023-04-24T14:06:35;13.13;;;3.30;;
43998;SDS011;51319;52.162;5.302;2023-04-24T14:09:02;12.32;;;3.28;;
43998;SDS011;51319;52.162;5.302;2023-04-24T14:14:05;11.90;;;3.17;;
43998;SDS011;51319;52.162;5.302;2023-04-24T14:16:32;15.18;;;3.13;;
43998;SDS011;51319;52.162;5.302;2023-04-24T14:18:59;15.48;;;4.88;;
43998;SDS011;51319;52.162;5.302;2023-04-24T14:21:28;16.42;;;3.67;;
43998;SDS011;51319;52.162;5.302;2023-04-24T14:23:56;19.63;;;4.00;;
43998;SDS011;51319;52.162;5.302;2023-04-24T14:26:23;12.90;;;3.00;;
43998;SDS011;51319;52.162;5.302;2023-04-24T14:28:51;14.38;;;3.35;;
43998;SDS011;51319;52.162;5.302;2023-04-24T14:31:36;14.07;;;2.88;;
43998;SDS011;51319;52.162;5.302;2023-04-24T14:34:05;11.68;;;2.90;;
43998;SDS011;51319;52.162;5.302;2023-04-24T14:36:32;13.48;;;3.78;;
43998;SDS011;51319;52.162;5.302;2023-04-24T14:38:59;14.48;;;3.85;;
43998;SDS011;51319;52.162;5.302;2023-04-24T14:41:30;10.65;;;3.05;;
43998;SDS011;51319;52.162;5.302;2023-04-24T14:43:57;13.38;;;3.35;;
43998;SDS011;51319;52.162;5.302;2023-04-24T14:49:06;18.38;;;3.97;;
43998;SDS011;51319;52.162;5.302;2023-04-24T14:51:36;15.93;;;3.67;;
43998;SDS011;51319;52.162;5.302;2023-04-24T14:54:03;16.13;;;3.67;;
43998;SDS011;51319;52.162;5.302;2023-04-24T14:56:30;19.38;;;4.45;;
43998;SDS011;51319;52.162;5.302;2023-04-24T14:58:57;14.38;;;3.47;;
43998;SDS011;51319;52.162;5.302;2023-04-24T15:01:24;23.00;;;4.05;;
43998;SDS011;51319;52.162;5.302;2023-04-24T15:03:51;16.25;;;4.07;;
43998;SDS011;51319;52.162;5.302;2023-04-24T15:06:19;12.93;;;4.32;;
43998;SDS011;51319;52.162;5.302;2023-04-24T15:08:49;12.13;;;3.17;;
43998;SDS011;51319;52.162;5.302;2023-04-24T15:11:16;13.82;;;3.65;;
43998;SDS011;51319;52.162;5.302;2023-04-24T15:13:44;17.88;;;3.40;;